createdAt,value
2017-12-06T00:00:57.250Z,1028.95
2017-12-06T00:02:18.966Z,1029
2017-12-06T00:03:40.409Z,1029
2017-12-06T00:05:02.380Z,1029.05
2017-12-06T00:06:24.637Z,1029.03
2017-12-06T00:07:46.619Z,1029.01
2017-12-06T00:09:08.585Z,1029.04
2017-12-06T00:10:30.818Z,1029.02
2017-12-06T00:11:52.246Z,1028.98
2017-12-06T00:13:14.464Z,1029.06
2017-12-06T00:14:36.001Z,1029.04
2017-12-06T00:15:57.545Z,1029.06
2017-12-06T00:17:19.511Z,1029.05
2017-12-06T00:18:41.216Z,1029.07
2017-12-06T00:20:03.197Z,1029.06
2017-12-06T00:21:25.010Z,1029.05
2017-12-06T00:22:46.448Z,1028.99
2017-12-06T00:24:08.225Z,1029.02
2017-12-06T00:25:30.710Z,1029
2017-12-06T00:26:51.868Z,1029.01
2017-12-06T00:28:14.088Z,1028.97
2017-12-06T00:29:35.905Z,1028.96
2017-12-06T00:30:57.080Z,1028.9
2017-12-06T00:32:18.646Z,1029
2017-12-06T00:33:40.889Z,1029
2017-12-06T00:35:02.846Z,1029
2017-12-06T00:36:25.072Z,1028.99
2017-12-06T00:37:47.373Z,1028.95
2017-12-06T00:39:09.450Z,1029.01
2017-12-06T00:40:31.672Z,1028.91
2017-12-06T00:41:53.908Z,1028.93
2017-12-06T00:43:15.598Z,1028.87
2017-12-06T00:44:37.846Z,1028.9
2017-12-06T00:45:59.807Z,1028.89
2017-12-06T00:47:21.844Z,1028.92
2017-12-06T00:48:43.807Z,1028.97
2017-12-06T00:50:05.876Z,1028.89
2017-12-06T00:51:27.835Z,1028.89
2017-12-06T00:52:49.862Z,1028.85
2017-12-06T00:54:11.357Z,1028.84
2017-12-06T00:55:33.602Z,1028.83
2017-12-06T00:56:55.055Z,1028.78
2017-12-06T00:58:16.496Z,1028.85
2017-12-06T00:59:37.925Z,1028.85
2017-12-06T01:01:00.153Z,1028.83
2017-12-06T01:02:21.646Z,1028.87
2017-12-06T01:03:43.866Z,1028.88
2017-12-06T01:05:05.596Z,1028.87
2017-12-06T01:06:27.320Z,1028.87
2017-12-06T01:07:49.415Z,1028.87
2017-12-06T01:09:11.164Z,1028.91
2017-12-06T01:10:32.906Z,1028.83
2017-12-06T01:11:54.066Z,1028.86
2017-12-06T01:13:16.167Z,1028.81
2017-12-06T01:14:37.887Z,1028.77
2017-12-06T01:15:59.895Z,1028.8
2017-12-06T01:17:21.575Z,1028.71
2017-12-06T01:18:43.005Z,1028.74
2017-12-06T01:20:04.166Z,1028.7
2017-12-06T01:21:25.846Z,1028.77
2017-12-06T01:22:47.593Z,1028.74
2017-12-06T01:24:09.280Z,1028.7
2017-12-06T01:25:31.281Z,1028.69
2017-12-06T01:26:53.235Z,1028.66
2017-12-06T01:28:15.199Z,1028.76
2017-12-06T01:29:37.416Z,1028.68
2017-12-06T01:30:59.536Z,1028.72
2017-12-06T01:32:21.025Z,1028.69
2017-12-06T01:33:42.993Z,1028.75
2017-12-06T01:35:04.419Z,1028.66
2017-12-06T01:36:25.575Z,1028.72
2017-12-06T01:37:47.577Z,1028.65
2017-12-06T01:39:08.722Z,1028.63
2017-12-06T01:40:30.454Z,1028.67
2017-12-06T01:41:52.166Z,1028.65
2017-12-06T01:43:13.875Z,1028.65
2017-12-06T01:44:35.865Z,1028.64
2017-12-06T01:45:57.865Z,1028.67
2017-12-06T01:47:19.155Z,1028.64
2017-12-06T01:48:41.402Z,1028.64
2017-12-06T01:50:03.199Z,1028.63
2017-12-06T01:51:24.644Z,1028.63
2017-12-06T01:52:46.870Z,1028.65
2017-12-06T01:54:08.564Z,1028.66
2017-12-06T01:55:30.034Z,1028.69
2017-12-06T01:56:51.544Z,1028.66
2017-12-06T01:58:15.104Z,1028.62
2017-12-06T01:59:36.566Z,1028.6
2017-12-06T02:00:58.796Z,1028.61
2017-12-06T02:02:20.265Z,1028.54
2017-12-06T02:03:42.105Z,1028.56
2017-12-06T02:05:03.805Z,1028.56
2017-12-06T02:06:25.774Z,1028.57
2017-12-06T02:07:47.745Z,1028.52
2017-12-06T02:09:09.179Z,1028.51
2017-12-06T02:10:30.666Z,1028.49
2017-12-06T02:11:52.369Z,1028.44
2017-12-06T02:13:14.355Z,1028.4
2017-12-06T02:14:36.364Z,1028.42
2017-12-06T02:15:58.098Z,1028.38
2017-12-06T02:17:19.796Z,1028.33
2017-12-06T02:18:41.776Z,1028.38
2017-12-06T02:20:03.518Z,1028.32
2017-12-06T02:21:24.977Z,1028.31
2017-12-06T02:22:47.014Z,1028.28
2017-12-06T02:24:08.445Z,1028.29
2017-12-06T02:25:30.442Z,1028.27
2017-12-06T02:26:52.138Z,1028.31
2017-12-06T02:28:13.847Z,1028.29
2017-12-06T02:29:35.846Z,1028.3
2017-12-06T02:30:57.547Z,1028.29
2017-12-06T02:32:18.727Z,1028.16
2017-12-06T02:33:40.688Z,1028.22
2017-12-06T02:35:02.646Z,1028.15
2017-12-06T02:36:24.145Z,1028.12
2017-12-06T02:37:46.115Z,1028.19
2017-12-06T02:39:08.115Z,1028.18
2017-12-06T02:40:29.915Z,1028.19
2017-12-06T02:41:52.292Z,1028.18
2017-12-06T02:43:13.726Z,1028.32
2017-12-06T02:44:35.938Z,1028.34
2017-12-06T02:45:57.704Z,1028.33
2017-12-06T02:47:19.636Z,1028.32
2017-12-06T02:48:41.638Z,1028.39
2017-12-06T02:50:03.494Z,1028.29
2017-12-06T02:51:24.779Z,1028.3
2017-12-06T02:52:46.440Z,1028.25
2017-12-06T02:54:08.515Z,1028.23
2017-12-06T02:55:29.953Z,1028.16
2017-12-06T02:56:52.317Z,1028.16
2017-12-06T02:58:14.558Z,1028.13
2017-12-06T02:59:36.285Z,1028.06
2017-12-06T03:00:58.337Z,1028.03
2017-12-06T03:02:20.034Z,1027.97
2017-12-06T03:03:42.015Z,1027.96
2017-12-06T03:05:03.436Z,1027.94
2017-12-06T03:06:25.190Z,1027.96
2017-12-06T03:07:47.163Z,1028.03
2017-12-06T03:09:08.855Z,1028.06
2017-12-06T03:10:30.438Z,1028.04
2017-12-06T03:11:52.665Z,1027.93
2017-12-06T03:13:14.514Z,1027.94
2017-12-06T03:14:36.306Z,1028.04
2017-12-06T03:15:57.726Z,1028.03
2017-12-06T03:17:19.534Z,1027.99
2017-12-06T03:18:41.638Z,1027.96
2017-12-06T03:20:03.336Z,1027.93
2017-12-06T03:21:25.128Z,1027.93
2017-12-06T03:22:46.805Z,1027.8
2017-12-06T03:24:08.775Z,1027.89
2017-12-06T03:25:30.212Z,1027.93
2017-12-06T03:26:52.225Z,1027.97
2017-12-06T03:28:13.645Z,1027.89
2017-12-06T03:29:35.621Z,1027.88
2017-12-06T03:30:57.931Z,1027.92
2017-12-06T03:32:19.701Z,1027.85
2017-12-06T03:33:40.996Z,1027.84
2017-12-06T03:35:02.805Z,1027.81
2017-12-06T03:36:24.294Z,1027.97
2017-12-06T03:37:46.292Z,1027.89
2017-12-06T03:39:07.585Z,1027.87
2017-12-06T03:40:29.375Z,1027.91
2017-12-06T03:41:51.122Z,1027.98
2017-12-06T03:43:12.954Z,1027.95
2017-12-06T03:44:34.373Z,1027.89
2017-12-06T03:45:55.799Z,1027.9
2017-12-06T03:47:17.494Z,1027.95
2017-12-06T03:48:39.195Z,1027.89
2017-12-06T03:50:01.151Z,1027.85
2017-12-06T03:51:23.233Z,1027.83
2017-12-06T03:52:45.528Z,1027.8
2017-12-06T03:54:06.963Z,1027.65
2017-12-06T03:55:28.762Z,1027.57
2017-12-06T03:56:50.774Z,1027.57
2017-12-06T03:58:12.596Z,1027.55
2017-12-06T03:59:33.764Z,1027.54
2017-12-06T04:00:55.455Z,1027.47
2017-12-06T04:02:17.429Z,1027.56
2017-12-06T04:03:39.225Z,1027.57
2017-12-06T04:05:00.985Z,1027.51
2017-12-06T04:06:23.054Z,1027.44
2017-12-06T04:07:45.085Z,1027.41
2017-12-06T04:09:07.326Z,1027.4
2017-12-06T04:10:29.332Z,1027.4
2017-12-06T04:11:51.086Z,1027.51
2017-12-06T04:13:13.066Z,1027.43
2017-12-06T04:14:34.759Z,1027.49
2017-12-06T04:15:56.261Z,1027.48
2017-12-06T04:17:18.245Z,1027.43
2017-12-06T04:18:39.725Z,1027.47
2017-12-06T04:20:01.976Z,1027.47
2017-12-06T04:21:23.971Z,1027.43
2017-12-06T04:22:45.954Z,1027.45
2017-12-06T04:24:08.038Z,1027.35
2017-12-06T04:25:29.214Z,1027.42
2017-12-06T04:26:50.907Z,1027.4
2017-12-06T04:28:12.777Z,1027.39
2017-12-06T04:29:34.475Z,1027.4
2017-12-06T04:30:55.698Z,1027.45
2017-12-06T04:32:17.197Z,1027.44
2017-12-06T04:33:39.150Z,1027.44
2017-12-06T04:35:00.854Z,1027.37
2017-12-06T04:36:22.407Z,1027.37
2017-12-06T04:37:44.385Z,1027.41
2017-12-06T04:39:06.624Z,1027.4
2017-12-06T04:40:27.796Z,1027.42
2017-12-06T04:41:50.104Z,1027.33
2017-12-06T04:43:11.541Z,1027.34
2017-12-06T04:44:33.078Z,1027.27
2017-12-06T04:45:55.329Z,1027.24
2017-12-06T04:47:17.017Z,1027.25
2017-12-06T04:48:38.975Z,1027.31
2017-12-06T04:50:00.829Z,1027.22
2017-12-06T04:51:23.127Z,1027.3
2017-12-06T04:52:45.158Z,1027.25
2017-12-06T04:54:07.137Z,1027.36
2017-12-06T04:55:29.384Z,1027.26
2017-12-06T04:56:50.803Z,1027.23
2017-12-06T04:58:13.171Z,1027.35
2017-12-06T04:59:35.142Z,1027.34
2017-12-06T05:00:56.852Z,1027.29
2017-12-06T05:02:18.535Z,1027.32
2017-12-06T05:03:40.234Z,1027.31
2017-12-06T05:05:02.215Z,1027.3
2017-12-06T05:06:23.925Z,1027.31
2017-12-06T05:07:45.653Z,1027.27
2017-12-06T05:09:07.129Z,1027.34
2017-12-06T05:10:28.869Z,1027.33
2017-12-06T05:11:50.304Z,1027.35
2017-12-06T05:13:12.304Z,1027.36
2017-12-06T05:14:34.016Z,1027.38
2017-12-06T05:15:55.805Z,1027.27
2017-12-06T05:17:17.578Z,1027.28
2017-12-06T05:18:39.636Z,1027.31
2017-12-06T05:20:01.453Z,1027.28
2017-12-06T05:21:22.666Z,1027.37
2017-12-06T05:22:44.383Z,1027.34
2017-12-06T05:24:06.359Z,1027.34
2017-12-06T05:25:28.374Z,1027.34
2017-12-06T05:26:50.089Z,1027.32
2017-12-06T05:28:11.524Z,1027.27
2017-12-06T05:29:33.513Z,1027.34
2017-12-06T05:30:55.311Z,1027.32
2017-12-06T05:32:17.305Z,1027.32
2017-12-06T05:33:39.093Z,1027.16
2017-12-06T05:35:01.327Z,1027.26
2017-12-06T05:36:23.035Z,1027.26
2017-12-06T05:37:45.016Z,1027.18
2017-12-06T05:39:06.457Z,1027.16
2017-12-06T05:40:28.713Z,1027.16
2017-12-06T05:41:50.775Z,1027.16
2017-12-06T05:43:12.483Z,1027.2
2017-12-06T05:44:34.184Z,1027.31
2017-12-06T05:45:56.144Z,1027.27
2017-12-06T05:47:18.233Z,1027.21
2017-12-06T05:48:39.658Z,1027.19
2017-12-06T05:50:01.132Z,1027.29
2017-12-06T05:51:23.518Z,1027.27
2017-12-06T05:52:44.936Z,1027.27
2017-12-06T05:54:06.984Z,1027.25
2017-12-06T05:55:28.941Z,1027.3
2017-12-06T05:56:50.974Z,1027.27
2017-12-06T05:58:12.694Z,1027.23
2017-12-06T05:59:34.694Z,1027.27
2017-12-06T06:00:56.418Z,1027.21
2017-12-06T06:02:18.123Z,1027.25
2017-12-06T06:03:39.828Z,1027.21
2017-12-06T06:05:01.086Z,1027.26
2017-12-06T06:06:23.128Z,1027.22
2017-12-06T06:07:44.617Z,1027.23
2017-12-06T06:09:06.415Z,1027.22
2017-12-06T06:10:28.458Z,1027.2
2017-12-06T06:11:49.891Z,1027.2
2017-12-06T06:13:11.601Z,1027.24
2017-12-06T06:14:33.884Z,1027.23
2017-12-06T06:15:55.886Z,1027.22
2017-12-06T06:17:17.853Z,1027.15
2017-12-06T06:18:39.035Z,1027.13
2017-12-06T06:20:01.275Z,1027.06
2017-12-06T06:21:22.975Z,1027.03
2017-12-06T06:22:44.517Z,1027.03
2017-12-06T06:24:06.583Z,1027.08
2017-12-06T06:25:28.299Z,1027.12
2017-12-06T06:26:49.995Z,1027.04
2017-12-06T06:28:12.000Z,1027.09
2017-12-06T06:29:33.694Z,1027.08
2017-12-06T06:30:55.126Z,1027.05
2017-12-06T06:32:17.175Z,1027.06
2017-12-06T06:33:39.224Z,1027.05
2017-12-06T06:35:01.544Z,1027.07
2017-12-06T06:36:23.794Z,1027.02
2017-12-06T06:37:45.584Z,1027.14
2017-12-06T06:39:07.834Z,1027.12
2017-12-06T06:40:29.824Z,1027.07
2017-12-06T06:41:51.504Z,1027.11
2017-12-06T06:43:13.342Z,1027.11
2017-12-06T06:44:34.853Z,1027.09
2017-12-06T06:45:56.384Z,1027.05
2017-12-06T06:47:18.372Z,1027.07
2017-12-06T06:48:40.367Z,1027.13
2017-12-06T06:50:01.798Z,1027.12
2017-12-06T06:51:23.769Z,1027.04
2017-12-06T06:52:45.754Z,1027.09
2017-12-06T06:54:07.716Z,1027.11
2017-12-06T06:55:29.514Z,1027.08
2017-12-06T06:56:50.976Z,1027.05
2017-12-06T06:58:12.669Z,1027.1
2017-12-06T06:59:34.116Z,1027.11
2017-12-06T07:00:55.933Z,1027.11
2017-12-06T07:02:18.186Z,1027.12
2017-12-06T07:03:39.924Z,1026.99
2017-12-06T07:05:01.886Z,1027.01
2017-12-06T07:06:23.934Z,1027.11
2017-12-06T07:07:45.633Z,1027.14
2017-12-06T07:09:07.325Z,1027.09
2017-12-06T07:10:29.296Z,1027.11
2017-12-06T07:11:51.004Z,1027.1
2017-12-06T07:13:12.980Z,1027.1
2017-12-06T07:14:34.674Z,1027.06
2017-12-06T07:15:56.637Z,1027.12
2017-12-06T07:17:18.911Z,1027.06
2017-12-06T07:18:40.994Z,1027.13
2017-12-06T07:20:03.005Z,1027.11
2017-12-06T07:21:24.968Z,1027.17
2017-12-06T07:22:46.679Z,1027.15
2017-12-06T07:24:08.924Z,1027.14
2017-12-06T07:25:31.175Z,1027.17
2017-12-06T07:26:52.864Z,1027.22
2017-12-06T07:28:14.310Z,1027.11
2017-12-06T07:29:36.276Z,1027.16
2017-12-06T07:30:58.506Z,1027.15
2017-12-06T07:32:20.475Z,1027.15
2017-12-06T07:33:42.214Z,1027.19
2017-12-06T07:35:04.238Z,1027.16
2017-12-06T07:36:25.924Z,1027.15
2017-12-06T07:37:47.875Z,1027.23
2017-12-06T07:39:09.836Z,1027.16
2017-12-06T07:40:31.594Z,1027.16
2017-12-06T07:41:53.546Z,1027.11
2017-12-06T07:43:15.324Z,1027.11
2017-12-06T07:44:37.550Z,1027.13
2017-12-06T07:45:59.238Z,1027.05
2017-12-06T07:47:20.937Z,1027.08
2017-12-06T07:48:42.939Z,1026.99
2017-12-06T07:50:04.981Z,1027.02
2017-12-06T07:51:26.416Z,1026.98
2017-12-06T07:52:48.637Z,1027.06
2017-12-06T07:54:10.614Z,1027.09
2017-12-06T07:55:32.316Z,1027.02
2017-12-06T07:56:54.164Z,1027.06
2017-12-06T07:58:15.603Z,1027.12
2017-12-06T07:59:37.839Z,1027.08
2017-12-06T08:00:59.811Z,1027.05
2017-12-06T08:02:21.996Z,1027.06
2017-12-06T08:03:44.087Z,1027.06
2017-12-06T08:05:06.315Z,1027.15
2017-12-06T08:06:28.565Z,1027.09
2017-12-06T08:07:50.291Z,1027.11
2017-12-06T08:09:12.778Z,1027.11
2017-12-06T08:10:34.582Z,1027.02
2017-12-06T08:11:56.863Z,1027.04
2017-12-06T08:13:18.586Z,1027.02
2017-12-06T08:14:40.936Z,1027.07
2017-12-06T08:16:02.900Z,1027.05
2017-12-06T08:17:24.068Z,1027.09
2017-12-06T08:18:45.595Z,1027.1
2017-12-06T08:20:07.844Z,1026.96
2017-12-06T08:21:30.088Z,1027.01
2017-12-06T08:22:52.106Z,1026.98
2017-12-06T08:24:13.808Z,1027.06
2017-12-06T08:25:35.082Z,1026.94
2017-12-06T08:26:56.508Z,1027.01
2017-12-06T08:28:18.484Z,1027.05
2017-12-06T08:29:40.454Z,1027.07
2017-12-06T08:31:02.676Z,1026.95
2017-12-06T08:32:24.417Z,1027.05
2017-12-06T08:33:46.384Z,1027.13
2017-12-06T08:35:07.855Z,1027.14
2017-12-06T08:36:29.282Z,1027.11
2017-12-06T08:37:50.991Z,1027.17
2017-12-06T08:39:12.961Z,1027.15
2017-12-06T08:40:34.123Z,1027.14
2017-12-06T08:41:55.566Z,1027.12
2017-12-06T08:43:17.532Z,1027.1
2017-12-06T08:44:39.107Z,1027.1
2017-12-06T08:46:00.535Z,1027.09
2017-12-06T08:47:22.570Z,1027.09
2017-12-06T08:48:44.626Z,1027.13
2017-12-06T08:50:06.335Z,1027.11
2017-12-06T08:51:28.138Z,1027.16
2017-12-06T08:52:50.705Z,1027.17
2017-12-06T08:54:11.993Z,1027.12
2017-12-06T08:55:33.685Z,1027.15
2017-12-06T08:56:55.653Z,1027.16
2017-12-06T08:58:17.094Z,1027.16
2017-12-06T08:59:39.105Z,1027.18
2017-12-06T09:01:00.599Z,1027.22
2017-12-06T09:02:22.584Z,1027.21
2017-12-06T09:03:44.594Z,1027.26
2017-12-06T09:05:06.574Z,1027.3
2017-12-06T09:06:28.812Z,1027.3
2017-12-06T09:07:50.835Z,1027.19
2017-12-06T09:09:12.555Z,1027.31
2017-12-06T09:10:34.014Z,1027.31
2017-12-06T09:11:55.731Z,1027.25
2017-12-06T09:13:18.124Z,1027.28
2017-12-06T09:14:39.828Z,1027.29
2017-12-06T09:16:01.614Z,1027.28
2017-12-06T09:17:23.667Z,1027.24
2017-12-06T09:18:45.646Z,1027.21
2017-12-06T09:20:07.986Z,1027.25
2017-12-06T09:21:30.219Z,1027.26
2017-12-06T09:22:51.646Z,1027.11
2017-12-06T09:24:13.475Z,1027.25
2017-12-06T09:25:35.695Z,1027.27
2017-12-06T09:26:57.258Z,1027.28
2017-12-06T09:28:18.955Z,1027.33
2017-12-06T09:29:41.195Z,1027.31
2017-12-06T09:31:03.444Z,1027.3
2017-12-06T09:32:25.167Z,1027.24
2017-12-06T09:33:46.615Z,1027.23
2017-12-06T09:35:07.779Z,1027.32
2017-12-06T09:36:29.225Z,1027.33
2017-12-06T09:37:51.243Z,1027.33
2017-12-06T09:39:13.283Z,1027.27
2017-12-06T09:40:35.356Z,1027.29
2017-12-06T09:41:57.345Z,1027.33
2017-12-06T09:43:18.770Z,1027.39
2017-12-06T09:44:41.165Z,1027.31
2017-12-06T09:46:03.425Z,1027.29
2017-12-06T09:47:25.196Z,1027.38
2017-12-06T09:48:46.996Z,1027.31
2017-12-06T09:50:09.067Z,1027.36
2017-12-06T09:51:30.846Z,1027.31
2017-12-06T09:52:52.936Z,1027.29
2017-12-06T09:54:15.246Z,1027.36
2017-12-06T09:55:37.225Z,1027.36
2017-12-06T09:56:59.197Z,1027.32
2017-12-06T09:58:20.635Z,1027.32
2017-12-06T09:59:42.175Z,1027.32
2017-12-06T10:01:04.238Z,1027.29
2017-12-06T10:02:26.164Z,1027.25
2017-12-06T10:03:48.136Z,1027.32
2017-12-06T10:05:10.514Z,1027.3
2017-12-06T10:06:32.194Z,1027.35
2017-12-06T10:07:54.155Z,1027.35
2017-12-06T10:09:15.608Z,1027.32
2017-12-06T10:10:37.854Z,1027.31
2017-12-06T10:11:59.547Z,1027.38
2017-12-06T10:13:21.525Z,1027.38
2017-12-06T10:14:44.101Z,1027.37
2017-12-06T10:16:06.082Z,1027.39
2017-12-06T10:17:27.255Z,1027.42
2017-12-06T10:18:49.254Z,1027.37
2017-12-06T10:20:11.085Z,1027.42
2017-12-06T10:21:33.080Z,1027.37
2017-12-06T10:22:55.069Z,1027.4
2017-12-06T10:24:16.764Z,1027.36
2017-12-06T10:25:38.329Z,1027.37
2017-12-06T10:27:00.024Z,1027.4
2017-12-06T10:28:22.095Z,1027.38
2017-12-06T10:29:43.789Z,1027.39
2017-12-06T10:31:05.225Z,1027.4
2017-12-06T10:32:26.925Z,1027.37
2017-12-06T10:33:48.892Z,1027.39
2017-12-06T10:35:10.600Z,1027.37
2017-12-06T10:36:32.743Z,1027.32
2017-12-06T10:37:54.716Z,1027.29
2017-12-06T10:39:17.015Z,1027.34
2017-12-06T10:40:39.453Z,1027.28
2017-12-06T10:42:01.167Z,1027.29
2017-12-06T10:43:23.147Z,1027.2
2017-12-06T10:44:44.852Z,1027.26
2017-12-06T10:46:06.285Z,1027.14
2017-12-06T10:47:28.035Z,1027.07
2017-12-06T10:48:49.792Z,1027.16
2017-12-06T10:50:11.484Z,1027.16
2017-12-06T10:51:33.465Z,1027.11
2017-12-06T10:52:54.887Z,1027.15
2017-12-06T10:54:16.580Z,1027.15
2017-12-06T10:55:38.107Z,1027.15
2017-12-06T10:56:59.531Z,1027.19
2017-12-06T10:58:21.504Z,1027.09
2017-12-06T10:59:43.054Z,1027.08
2017-12-06T11:01:05.287Z,1027.07
2017-12-06T11:02:26.784Z,1027.18
2017-12-06T11:03:48.495Z,1027.16
2017-12-06T11:05:10.300Z,1027.13
2017-12-06T11:06:31.999Z,1027.1
2017-12-06T11:07:53.504Z,1027.03
2017-12-06T11:09:14.943Z,1027.06
2017-12-06T11:10:36.924Z,1027
2017-12-06T11:11:58.350Z,1026.97
2017-12-06T11:13:20.428Z,1027.03
2017-12-06T11:14:42.437Z,1027.01
2017-12-06T11:16:04.458Z,1026.98
2017-12-06T11:17:26.194Z,1026.99
2017-12-06T11:18:48.673Z,1027
2017-12-06T11:20:10.885Z,1027.09
2017-12-06T11:21:33.259Z,1027.07
2017-12-06T11:22:54.780Z,1027.03
2017-12-06T11:24:16.914Z,1027
2017-12-06T11:25:38.955Z,1026.97
2017-12-06T11:27:01.198Z,1027.03
2017-12-06T11:28:23.191Z,1027.02
2017-12-06T11:29:44.914Z,1026.98
2017-12-06T11:31:06.770Z,1027.01
2017-12-06T11:32:28.467Z,1027.03
2017-12-06T11:33:50.433Z,1027.01
2017-12-06T11:35:12.238Z,1027
2017-12-06T11:36:34.294Z,1027.01
2017-12-06T11:37:55.731Z,1027.02
2017-12-06T11:39:17.734Z,1026.96
2017-12-06T11:40:39.191Z,1027
2017-12-06T11:42:00.966Z,1027.07
2017-12-06T11:43:22.663Z,1027.04
2017-12-06T11:44:44.115Z,1027.01
2017-12-06T11:46:06.105Z,1027.02
2017-12-06T11:47:28.086Z,1026.99
2017-12-06T11:48:49.256Z,1026.98
2017-12-06T11:50:10.982Z,1026.96
2017-12-06T11:51:32.674Z,1026.91
2017-12-06T11:52:54.677Z,1026.9
2017-12-06T11:54:16.684Z,1026.89
2017-12-06T11:55:38.925Z,1026.81
2017-12-06T11:57:00.974Z,1026.9
2017-12-06T11:58:23.025Z,1026.89
2017-12-06T11:59:44.836Z,1026.87
2017-12-06T12:01:06.283Z,1026.83
2017-12-06T12:02:28.336Z,1026.85
2017-12-06T12:03:50.060Z,1026.84
2017-12-06T12:05:12.046Z,1026.81
2017-12-06T12:06:33.757Z,1026.87
2017-12-06T12:07:55.514Z,1026.74
2017-12-06T12:09:17.200Z,1026.74
2017-12-06T12:10:38.909Z,1026.74
2017-12-06T12:12:00.647Z,1026.73
2017-12-06T12:13:22.615Z,1026.74
2017-12-06T12:14:44.336Z,1026.79
2017-12-06T12:16:06.127Z,1026.75
2017-12-06T12:17:27.821Z,1026.75
2017-12-06T12:18:49.524Z,1026.72
2017-12-06T12:20:11.013Z,1026.71
2017-12-06T12:21:33.001Z,1026.7
2017-12-06T12:22:54.716Z,1026.69
2017-12-06T12:24:16.955Z,1026.72
2017-12-06T12:25:39.343Z,1026.67
2017-12-06T12:27:01.412Z,1026.62
2017-12-06T12:28:23.698Z,1026.6
2017-12-06T12:29:45.746Z,1026.61
2017-12-06T12:31:07.714Z,1026.54
2017-12-06T12:32:29.430Z,1026.55
2017-12-06T12:33:51.144Z,1026.56
2017-12-06T12:35:12.866Z,1026.59
2017-12-06T12:36:34.434Z,1026.54
2017-12-06T12:37:55.879Z,1026.54
2017-12-06T12:39:17.585Z,1026.52
2017-12-06T12:40:39.535Z,1026.54
2017-12-06T12:42:01.337Z,1026.56
2017-12-06T12:43:23.598Z,1026.54
2017-12-06T12:44:44.774Z,1026.54
2017-12-06T12:46:07.059Z,1026.54
2017-12-06T12:47:29.034Z,1026.47
2017-12-06T12:48:50.567Z,1026.48
2017-12-06T12:50:12.613Z,1026.5
2017-12-06T12:51:34.970Z,1026.45
2017-12-06T12:52:56.454Z,1026.46
2017-12-06T12:54:18.774Z,1026.45
2017-12-06T12:55:40.853Z,1026.41
2017-12-06T12:57:02.823Z,1026.45
2017-12-06T12:58:24.534Z,1026.4
2017-12-06T12:59:46.521Z,1026.33
2017-12-06T13:01:08.224Z,1026.36
2017-12-06T13:02:30.230Z,1026.37
2017-12-06T13:03:52.245Z,1026.41
2017-12-06T13:05:13.974Z,1026.41
2017-12-06T13:06:36.214Z,1026.45
2017-12-06T13:07:57.916Z,1026.46
2017-12-06T13:09:19.888Z,1026.38
2017-12-06T13:10:41.675Z,1026.38
2017-12-06T13:12:03.675Z,1026.37
2017-12-06T13:13:25.108Z,1026.44
2017-12-06T13:14:47.167Z,1026.43
2017-12-06T13:16:08.873Z,1026.41
2017-12-06T13:17:30.936Z,1026.38
2017-12-06T13:18:53.031Z,1026.43
2017-12-06T13:20:15.292Z,1026.45
2017-12-06T13:21:37.555Z,1026.37
2017-12-06T13:22:59.254Z,1026.37
2017-12-06T13:24:20.967Z,1026.34
2017-12-06T13:25:42.939Z,1026.34
2017-12-06T13:27:04.930Z,1026.35
2017-12-06T13:28:26.763Z,1026.33
2017-12-06T13:29:48.774Z,1026.32
2017-12-06T13:31:10.233Z,1026.26
2017-12-06T13:32:32.225Z,1026.31
2017-12-06T13:33:53.958Z,1026.3
2017-12-06T13:35:15.137Z,1026.25
2017-12-06T13:36:37.105Z,1026.17
2017-12-06T13:37:59.355Z,1026.24
2017-12-06T13:39:20.781Z,1026.23
2017-12-06T13:40:43.033Z,1026.23
2017-12-06T13:42:05.266Z,1026.22
2017-12-06T13:43:27.296Z,1026.18
2017-12-06T13:44:48.856Z,1026.17
2017-12-06T13:46:10.868Z,1026.15
2017-12-06T13:47:32.886Z,1026.12
2017-12-06T13:48:54.708Z,1026.07
2017-12-06T13:50:16.694Z,1026.1
2017-12-06T13:51:38.754Z,1026.09
2017-12-06T13:53:01.039Z,1026.11
2017-12-06T13:54:22.826Z,1026.04
2017-12-06T13:55:45.116Z,1025.99
2017-12-06T13:57:07.354Z,1026.05
2017-12-06T13:58:29.615Z,1026.01
2017-12-06T13:59:51.922Z,1026.06
2017-12-06T14:01:13.632Z,1025.99
2017-12-06T14:02:35.648Z,1026.03
2017-12-06T14:03:57.081Z,1025.98
2017-12-06T14:05:19.136Z,1026.03
2017-12-06T14:06:41.407Z,1025.97
2017-12-06T14:08:03.403Z,1025.93
2017-12-06T14:09:25.748Z,1025.94
2017-12-06T14:10:47.747Z,1025.96
2017-12-06T14:12:09.488Z,1025.93
2017-12-06T14:13:31.777Z,1025.9
2017-12-06T14:14:54.045Z,1025.93
2017-12-06T14:16:15.892Z,1025.94
2017-12-06T14:17:38.166Z,1025.95
2017-12-06T14:19:00.167Z,1025.97
2017-12-06T14:20:22.167Z,1025.98
2017-12-06T14:21:43.888Z,1026.02
2017-12-06T14:23:05.610Z,1026
2017-12-06T14:24:27.344Z,1025.96
2017-12-06T14:25:49.624Z,1025.99
2017-12-06T14:27:12.094Z,1025.98
2017-12-06T14:28:34.425Z,1026
2017-12-06T14:29:56.494Z,1025.98
2017-12-06T14:31:18.628Z,1026.05
2017-12-06T14:32:40.710Z,1026.05
2017-12-06T14:34:02.423Z,1026.03
2017-12-06T14:35:24.465Z,1026.07
2017-12-06T14:36:46.435Z,1026.04
2017-12-06T14:38:08.282Z,1025.97
2017-12-06T14:39:30.022Z,1026
2017-12-06T14:40:51.795Z,1026
2017-12-06T14:42:13.395Z,1026.08
2017-12-06T14:43:35.372Z,1025.98
2017-12-06T14:44:57.610Z,1025.99
2017-12-06T14:46:19.897Z,1025.94
2017-12-06T14:47:42.143Z,1025.96
2017-12-06T14:49:04.216Z,1026.01
2017-12-06T14:50:26.206Z,1025.95
2017-12-06T14:51:48.016Z,1025.99
2017-12-06T14:53:10.001Z,1025.95
2017-12-06T14:54:31.985Z,1025.98
2017-12-06T14:55:53.806Z,1025.93
2017-12-06T14:57:15.866Z,1026
2017-12-06T14:58:37.898Z,1025.93
2017-12-06T15:00:00.201Z,1025.9
2017-12-06T15:01:22.476Z,1025.93
2017-12-06T15:02:44.741Z,1025.91
2017-12-06T15:04:06.748Z,1025.91
2017-12-06T15:05:28.784Z,1025.89
2017-12-06T15:06:51.075Z,1025.93
2017-12-06T15:08:12.869Z,1025.92
2017-12-06T15:09:35.182Z,1025.9
2017-12-06T15:10:56.955Z,1025.93
2017-12-06T15:12:18.976Z,1025.9
2017-12-06T15:13:49.066Z,1025.88
2017-12-06T15:15:10.862Z,1025.83
2017-12-06T15:16:32.867Z,1025.81
2017-12-06T15:17:54.896Z,1025.86
2017-12-06T15:19:16.392Z,1025.81
2017-12-06T15:20:38.383Z,1025.87
2017-12-06T15:22:00.848Z,1025.86
2017-12-06T15:23:22.303Z,1025.89
2017-12-06T15:24:44.444Z,1025.87
2017-12-06T15:26:06.175Z,1025.92
2017-12-06T15:27:28.176Z,1025.9
2017-12-06T15:28:50.620Z,1025.9
2017-12-06T15:30:12.625Z,1025.94
2017-12-06T15:31:33.858Z,1025.92
2017-12-06T15:32:55.865Z,1025.9
2017-12-06T15:34:17.876Z,1025.93
2017-12-06T15:35:39.974Z,1025.93
2017-12-06T15:37:02.298Z,1025.85
2017-12-06T15:38:24.755Z,1025.9
2017-12-06T15:39:46.886Z,1025.95
2017-12-06T15:41:09.095Z,1025.86
2017-12-06T15:42:31.343Z,1025.89
2017-12-06T15:43:53.703Z,1025.93
2017-12-06T15:45:15.702Z,1025.95
2017-12-06T15:46:37.424Z,1025.87
2017-12-06T15:47:59.227Z,1025.86
2017-12-06T15:49:21.385Z,1025.84
2017-12-06T15:50:43.723Z,1025.88
2017-12-06T15:52:05.461Z,1025.82
2017-12-06T15:53:27.854Z,1025.8
2017-12-06T15:54:50.176Z,1025.82
2017-12-06T15:56:11.914Z,1025.79
2017-12-06T15:57:33.644Z,1025.79
2017-12-06T15:58:55.454Z,1025.76
2017-12-06T16:00:17.626Z,1025.75
2017-12-06T16:01:39.893Z,1025.7
2017-12-06T16:03:01.916Z,1025.7
2017-12-06T16:04:24.045Z,1025.69
2017-12-06T16:05:46.295Z,1025.66
2017-12-06T16:07:08.559Z,1025.62
2017-12-06T16:08:30.837Z,1025.62
2017-12-06T16:09:53.240Z,1025.62
2017-12-06T16:11:15.496Z,1025.61
2017-12-06T16:12:37.597Z,1025.56
2017-12-06T16:13:59.699Z,1025.58
2017-12-06T16:15:21.535Z,1025.57
2017-12-06T16:16:43.576Z,1025.6
2017-12-06T16:18:05.590Z,1025.52
2017-12-06T16:19:27.325Z,1025.52
2017-12-06T16:20:49.325Z,1025.47
2017-12-06T16:22:11.599Z,1025.53
2017-12-06T16:23:33.890Z,1025.5
2017-12-06T16:24:56.266Z,1025.52
2017-12-06T16:26:18.291Z,1025.51
2017-12-06T16:27:39.776Z,1025.51
2017-12-06T16:29:01.789Z,1025.53
2017-12-06T16:30:23.779Z,1025.46
2017-12-06T16:31:46.032Z,1025.49
2017-12-06T16:33:08.042Z,1025.48
2017-12-06T16:34:30.079Z,1025.5
2017-12-06T16:35:51.537Z,1025.51